Time;durP1;ratioP1;P1;durP2;ratioP2;P2;SDS_P1;SDS_P2;PMS_P1;PMS_P2;Temp;Humidity;BMP_temperature;BMP_pressure;BME280_temperature;BME280_humidity;BME280_pressure;Samples;Min_cycle;Max_cycle;Signal;HPM_P1;HPM_P2
2021/11/24 00:02:03;;;;;;;;;;;;;;;;;;;;;
2021/11/24 00:16:58;;;;;;;20.40;14.25;;;;;;;7.32;78.33;95056.31;833540;71;33322;-78
2021/11/24 00:31:46;;;;;;;19.35;13.50;;;;;;;7.22;77.98;95049.23;830940;71;33229;-79
2021/11/24 00:46:49;;;;;;;22.73;14.07;;;;;;;7.29;77.93;95064.66;832952;71;32821;-78
2021/11/24 01:31:38;;;;;;;;;;;;;;;;;;;;;
2021/11/24 02:31:26;;;;;;;20.15;13.65;;;;;;;7.45;76.88;95034.21;827896;71;32807;-78
2021/11/24 03:16:35;;;;;;;23.92;16.35;;;;;;;7.22;76.94;95042.18;828425;71;32775;-79
2021/11/24 04:01:18;;;;;;;25.08;16.65;;;;;;;7.15;77.45;95063.01;833842;71;33304;-77
2021/11/24 04:16:11;;;;;;;24.57;16.17;;;;;;;7.11;77.47;95074.45;828647;71;31455;-77
2021/11/24 04:31:12;;;;;;;24.20;15.00;;;;;;;7.08;77.45;95082.02;827622;71;29734;-80
2021/11/24 04:46:30;;;;;;;26.17;17.05;;;;;;;7.07;77.50;95090.88;833281;71;33295;-76
2021/11/24 05:01:34;;;;;;;24.87;17.25;;;;;;;7.09;77.46;95103.93;828268;71;32877;-78
2021/11/24 05:16:47;;;;;;;23.35;16.73;;;;;;;7.13;77.46;95108.92;826272;71;32928;-77
2021/11/24 05:31:09;;;;;;;26.42;17.07;;;;;;;7.30;77.16;95123.64;819215;71;29887;-76
2021/11/24 05:46:13;;;;;;;21.55;15.30;;;;;;;7.42;76.56;95122.44;820300;71;30362;-79
2021/11/24 06:01:14;;;;;;;22.75;15.45;;;;;;;7.48;76.09;95135.02;822627;71;32902;-79
2021/11/24 06:16:08;;;;;;;25.10;16.35;;;;;;;7.54;75.88;95151.48;820379;71;29813;-78
2021/11/24 06:31:09;;;;;;;24.23;16.27;;;;;;;7.26;75.79;95110.33;818546;71;29379;-78
2021/11/24 06:46:09;;;;;;;25.57;16.00;;;;;;;7.68;75.48;95184.48;827663;71;30634;-79
2021/11/24 07:01:09;;;;;;;24.27;16.27;;;;;;;7.76;75.43;95187.39;827915;71;29547;-77
2021/11/24 07:16:14;;;;;;;27.40;17.50;;;;;;;7.84;75.04;95191.36;826573;71;32776;-77
2021/11/24 07:31:14;;;;;;;25.85;15.70;;;;;;;7.95;74.61;95193.01;833543;71;32713;-77
2021/11/24 07:46:08;;;;;;;22.45;15.53;;;;;;;8.06;74.04;95194.36;827658;71;29932;-77
2021/11/24 08:01:11;;;;;;;28.23;19.25;;;;;;;8.16;74.01;95186.05;827749;71;29534;-78
2021/11/24 08:16:09;;;;;;;34.92;22.30;;;;;;;8.16;73.19;95186.57;828879;71;29850;-80
2021/11/24 08:31:14;;;;;;;34.88;21.70;;;;;;;8.07;74.15;95181.05;828026;71;32719;-79
2021/11/24 08:46:12;;;;;;;34.70;22.00;;;;;;;7.68;75.43;95185.78;827727;71;32133;-75
2021/11/24 09:16:08;;;;;;;23.07;15.15;;;;;;;7.18;78.55;95169.52;827956;71;29792;-79
2021/11/24 09:31:08;;;;;;;25.35;15.18;;;;;;;7.21;79.05;95152.81;821808;71;29827;-77
2021/11/24 09:46:09;;;;;;;25.75;15.83;;;;;;;7.06;80.31;95150.11;821669;71;30554;-76
2021/11/24 10:01:15;;;;;;;26.40;15.78;;;;;;;7.34;79.96;95138.58;833466;71;33205;-78
2021/11/24 10:16:28;;;;;;;20.43;14.47;;;;;;;7.38;80.30;95120.56;827761;71;31551;-79
2021/11/24 10:31:28;;;;;;;23.32;14.60;;;;;;;7.87;77.85;95111.69;822614;71;30900;-76
2021/11/24 10:46:17;;;;;;;31.97;17.95;;;;;;;7.20;81.04;95108.72;826911;71;32766;-78
2021/11/24 11:01:11;;;;;;;24.63;14.40;;;;;;;6.82;83.90;95089.64;833444;71;29668;-78
2021/11/24 11:16:19;;;;;;;25.65;17.35;;;;;;;6.70;85.35;95076.77;833234;71;32735;-78
2021/11/24 11:31:17;;;;;;;28.65;17.25;;;;;;;6.66;86.04;95081.43;817859;71;33190;-78
2021/11/24 11:46:50;;;;;;;21.17;15.00;;;;;;;6.76;85.45;95057.52;819693;71;33460;-77
2021/11/24 12:01:27;;;;;;;12.58;11.28;;;;;;;6.77;83.90;95053.08;826946;70;32895;-76
2021/11/24 12:16:43;;;;;;;12.75;10.43;;;;;;;7.11;79.33;95054.11;826751;71;32815;-77
2021/11/24 12:31:14;;;;;;;12.82;10.25;;;;;;;6.85;79.90;95051.31;784926;73;30351;-76
2021/11/24 12:46:18;;;;;;;15.60;12.13;;;;;;;6.79;79.86;95035.36;816866;70;33255;-78
2021/11/24 13:01:21;;;;;;;17.57;13.93;;;;;;;6.59;80.21;95049.05;823807;70;32734;-76
2021/11/24 13:16:42;;;;;;;15.03;12.60;;;;;;;6.30;81.18;95039.39;820570;71;33172;-76
2021/11/24 13:31:15;;;;;;;15.10;11.40;;;;;;;6.12;80.68;95030.87;820914;70;33731;-77
2021/11/24 13:46:22;;;;;;;13.45;10.70;;;;;;;5.97;80.80;95034.13;823305;70;32547;-76
2021/11/24 14:01:17;;;;;;;11.95;10.60;;;;;;;5.87;80.60;95035.30;820039;71;32153;-75
2021/11/24 14:16:11;;;;;;;14.30;10.08;;;;;;;5.85;80.14;95037.36;824528;71;29462;-77
2021/11/24 14:31:15;;;;;;;12.95;10.80;;;;;;;5.86;79.41;95059.77;816562;71;32777;-77
2021/11/24 14:46:09;;;;;;;12.25;10.32;;;;;;;5.64;79.63;95036.34;814503;71;29484;-78
2021/11/24 15:16:12;;;;;;;12.23;9.70;;;;;;;5.30;79.97;95061.67;837567;70;30274;-80
2021/11/24 15:31:12;;;;;;;13.20;9.78;;;;;;;5.26;78.56;95034.56;825254;71;32126;-77
2021/11/24 15:46:08;;;;;;;14.38;10.00;;;;;;;5.15;78.51;95042.73;833485;70;29686;-78
2021/11/24 16:01:09;;;;;;;14.15;11.10;;;;;;;5.07;78.53;95032.73;821099;71;30607;-76
2021/11/24 16:16:17;;;;;;;15.65;11.55;;;;;;;4.96;79.02;95045.59;833441;70;32771;-79
2021/11/24 16:31:09;;;;;;;16.12;11.65;;;;;;;4.90;79.20;95047.84;829283;71;30937;-80
2021/11/24 16:46:26;;;;;;;14.98;12.35;;;;;;;4.79;79.58;95050.81;824870;71;31419;-81
2021/11/24 17:01:13;;;;;;;14.23;10.98;;;;;;;4.74;79.00;95049.95;829152;71;33124;-79
2021/11/24 17:16:09;;;;;;;15.25;10.25;;;;;;;4.63;79.35;95039.91;820571;71;30248;-82
2021/11/24 17:31:18;;;;;;;16.73;10.68;;;;;;;4.61;78.73;95047.94;820511;71;32840;-80
2021/11/24 17:46:17;;;;;;;16.73;11.45;;;;;;;4.79;78.36;95046.14;820835;71;33145;-76
2021/11/24 18:01:13;;;;;;;12.33;9.25;;;;;;;4.83;77.91;95025.14;827610;71;32025;-79
2021/11/24 18:16:09;;;;;;;14.95;10.32;;;;;;;5.02;77.17;95023.06;827874;71;30045;-77
2021/11/24 18:31:10;;;;;;;11.93;8.93;;;;;;;5.26;76.38;95024.94;821056;71;30127;-78
2021/11/24 18:46:28;;;;;;;13.78;10.08;;;;;;;5.42;75.79;95019.42;833244;71;32806;-78
2021/11/24 19:16:15;;;;;;;11.50;9.00;;;;;;;5.99;74.26;95009.14;820057;71;32856;-78
2021/11/24 19:31:15;;;;;;;12.18;9.33;;;;;;;6.18;73.25;95015.59;819944;71;33348;-77
2021/11/24 19:46:14;;;;;;;14.93;10.75;;;;;;;6.32;73.07;95016.48;826786;71;32965;-77
2021/11/24 20:01:08;;;;;;;14.00;10.10;;;;;;;6.53;72.32;94998.69;828043;71;30226;-75
2021/11/24 20:16:10;;;;;;;14.43;10.80;;;;;;;6.85;71.75;95001.76;827899;71;29554;-78
2021/11/24 20:31:16;;;;;;;17.98;11.90;;;;;;;6.91;70.86;94998.67;833260;71;32710;-76
2021/11/24 20:46:14;;;;;;;16.93;11.93;;;;;;;6.69;71.22;95002.20;827829;71;32790;-77
2021/11/24 21:16:15;;;;;;;17.00;11.28;;;;;;;6.52;71.55;94997.09;835665;71;32740;-77
2021/11/24 21:31:10;;;;;;;15.43;10.40;;;;;;;6.50;71.24;94988.73;835558;71;29419;-78
2021/11/24 21:46:09;;;;;;;15.40;10.60;;;;;;;6.57;71.11;94988.03;829255;71;30417;-79
2021/11/24 22:01:15;;;;;;;15.95;11.33;;;;;;;6.45;71.07;94982.20;826941;71;32734;-77
2021/11/24 22:16:09;;;;;;;13.78;10.48;;;;;;;6.49;71.40;94983.77;827853;71;29720;-76
2021/11/24 22:31:15;;;;;;;17.02;12.20;;;;;;;6.38;71.49;94972.48;826753;71;32716;-76
2021/11/24 22:46:08;;;;;;;17.02;12.35;;;;;;;6.27;71.96;94963.81;833577;71;30019;-79
2021/11/24 23:01:08;;;;;;;16.87;12.50;;;;;;;6.04;72.61;94958.39;827426;71;29665;-77
2021/11/24 23:16:12;;;;;;;16.73;11.95;;;;;;;5.95;73.03;94946.34;827792;71;32020;-75
2021/11/24 23:31:08;;;;;;;14.83;10.88;;;;;;;6.12;72.81;94938.92;827822;71;29732;-79
2021/11/24 23:46:08;;;;;;;16.60;10.88;;;;;;;6.31;71.67;94929.70;833518;71;29365;-77
